createdAt,value
2022-10-15T00:00:42.024Z,13.21
2022-10-15T00:03:19.014Z,13.57
2022-10-15T00:05:56.053Z,13.83
2022-10-15T00:08:33.190Z,13.63
2022-10-15T00:11:16.406Z,13.38
2022-10-15T00:13:54.549Z,13.11
2022-10-15T00:16:32.875Z,13.65
2022-10-15T00:19:10.760Z,13.33
2022-10-15T00:21:47.972Z,13.76
2022-10-15T00:24:26.430Z,13.68
2022-10-15T00:27:03.570Z,13.85
2022-10-15T00:29:42.118Z,13.68
2022-10-15T00:32:19.325Z,13.40
2022-10-15T00:34:57.875Z,13.38
2022-10-15T00:37:36.409Z,13.60
2022-10-15T00:40:15.296Z,13.63
2022-10-15T00:42:53.634Z,13.61
2022-10-15T00:45:30.670Z,13.68
2022-10-15T00:48:07.698Z,13.72
2022-10-15T00:50:44.747Z,13.84
2022-10-15T00:53:23.394Z,13.75
2022-10-15T00:56:00.787Z,13.78
2022-10-15T00:58:39.008Z,13.41
2022-10-15T01:01:16.077Z,13.18
2022-10-15T01:03:54.744Z,13.24
2022-10-15T01:06:33.274Z,13.20
2022-10-15T01:09:12.052Z,13.46
2022-10-15T01:11:51.316Z,13.10
2022-10-15T01:15:00.489Z,12.84
2022-10-15T01:17:50.440Z,13.44
2022-10-15T01:20:31.213Z,13.43
2022-10-15T01:23:49.282Z,13.08
2022-10-15T01:26:36.069Z,13.27
2022-10-15T01:29:45.512Z,13.27
2022-10-15T01:32:25.480Z,12.62
2022-10-15T01:35:03.270Z,12.82
2022-10-15T01:37:52.867Z,12.69
2022-10-15T01:40:51.343Z,12.60
2022-10-15T01:43:31.225Z,12.77
2022-10-15T01:46:07.453Z,12.55
2022-10-15T01:48:35.142Z,12.37
2022-10-15T01:51:03.983Z,12.64
2022-10-15T01:53:34.183Z,12.09
2022-10-15T01:56:04.568Z,12.06
2022-10-15T01:58:32.509Z,12.35
2022-10-15T02:00:59.894Z,12.49
2022-10-15T02:03:27.585Z,12.15
2022-10-15T02:05:59.611Z,12.47
2022-10-15T02:08:56.549Z,12.64
2022-10-15T02:11:24.200Z,12.10
2022-10-15T02:14:04.131Z,12.65
2022-10-15T02:16:35.688Z,12.72
2022-10-15T02:19:18.798Z,12.75
2022-10-15T02:22:18.816Z,12.81
2022-10-15T02:24:54.556Z,12.74
2022-10-15T02:27:23.745Z,12.69
2022-10-15T02:29:52.747Z,12.35
2022-10-15T02:32:21.268Z,12.00
2022-10-15T02:34:49.502Z,12.01
2022-10-15T02:37:19.109Z,11.90
2022-10-15T02:39:46.542Z,11.79
2022-10-15T02:42:18.069Z,11.85
2022-10-15T02:44:45.414Z,12.16
2022-10-15T02:47:12.878Z,12.49
2022-10-15T02:49:41.200Z,12.31
2022-10-15T02:52:08.777Z,12.11
2022-10-15T02:54:36.273Z,12.05
2022-10-15T02:57:03.905Z,12.26
2022-10-15T02:59:31.292Z,12.35
2022-10-15T03:01:59.157Z,12.36
2022-10-15T03:04:27.128Z,12.01
2022-10-15T03:06:55.112Z,11.73
2022-10-15T03:09:23.127Z,12.08
2022-10-15T03:11:50.754Z,12.21
2022-10-15T03:14:18.138Z,12.17
2022-10-15T03:16:45.636Z,12.27
2022-10-15T03:19:13.674Z,11.97
2022-10-15T03:21:41.099Z,12.15
2022-10-15T03:24:09.341Z,12.09
2022-10-15T03:26:37.132Z,11.99
2022-10-15T03:29:04.803Z,12.29
2022-10-15T03:31:32.652Z,12.38
2022-10-15T03:34:01.185Z,12.28
2022-10-15T03:36:28.679Z,12.08
2022-10-15T03:38:56.642Z,12.05
2022-10-15T03:41:24.258Z,12.09
2022-10-15T03:43:51.920Z,12.19
2022-10-15T03:46:19.311Z,11.93
2022-10-15T03:48:50.793Z,12.15
2022-10-15T03:51:22.077Z,12.18
2022-10-15T03:53:53.376Z,11.90
2022-10-15T03:56:20.793Z,11.68
2022-10-15T03:58:48.280Z,11.97
2022-10-15T04:01:17.061Z,11.64
2022-10-15T04:03:44.874Z,11.65
2022-10-15T04:06:13.084Z,12.14
2022-10-15T04:08:40.505Z,12.17
2022-10-15T04:11:12.724Z,11.45
2022-10-15T04:13:40.060Z,11.59
2022-10-15T04:16:07.504Z,12.16
2022-10-15T04:18:35.129Z,11.90
2022-10-15T04:21:02.483Z,12.04
2022-10-15T04:23:31.597Z,11.84
2022-10-15T04:26:04.041Z,11.69
2022-10-15T04:28:31.375Z,11.97
2022-10-15T04:30:59.264Z,12.04
2022-10-15T04:33:37.662Z,11.81
2022-10-15T04:38:59.681Z,12.58
2022-10-15T04:41:38.351Z,12.73
2022-10-15T04:44:17.016Z,12.61
2022-10-15T04:46:55.553Z,12.60
2022-10-15T04:49:34.286Z,12.31
2022-10-15T04:52:13.104Z,12.37
2022-10-15T04:59:11.451Z,11.67
2022-10-15T05:01:54.774Z,11.97
2022-10-15T05:04:33.340Z,12.32
2022-10-15T05:07:11.962Z,12.36
2022-10-15T05:09:50.643Z,12.44
2022-10-15T05:12:29.262Z,12.58
2022-10-15T05:15:08.212Z,12.21
2022-10-15T05:17:46.460Z,11.78
2022-10-15T05:20:23.550Z,12.67
2022-10-15T05:23:04.323Z,12.75
2022-10-15T05:25:42.355Z,12.37
2022-10-15T05:28:20.989Z,12.22
2022-10-15T05:31:13.720Z,12.66
2022-10-15T05:33:49.158Z,12.66
2022-10-15T05:36:19.372Z,12.37
2022-10-15T05:38:51.226Z,12.08
2022-10-15T05:41:18.909Z,11.97
2022-10-15T05:43:47.506Z,12.15
2022-10-15T05:46:22.402Z,12.31
2022-10-15T05:48:53.634Z,12.50
2022-10-15T05:51:21.468Z,12.06
2022-10-15T05:53:52.890Z,12.35
2022-10-15T05:56:20.229Z,12.68
2022-10-15T05:58:47.883Z,12.47
2022-10-15T06:01:15.330Z,12.55
2022-10-15T06:03:48.873Z,12.58
2022-10-15T06:06:23.602Z,12.77
2022-10-15T06:08:51.425Z,12.85
2022-10-15T06:11:18.837Z,12.73
2022-10-15T06:13:46.434Z,12.85
2022-10-15T06:16:16.631Z,12.92
2022-10-15T06:18:46.813Z,12.97
2022-10-15T06:21:14.424Z,13.17
2022-10-15T06:23:41.767Z,13.33
2022-10-15T06:26:09.708Z,13.37
2022-10-15T06:28:37.476Z,13.37
2022-10-15T06:31:05.565Z,13.52
2022-10-15T06:33:32.950Z,13.66
2022-10-15T06:36:10.168Z,13.77
2022-10-15T06:38:37.778Z,13.81
2022-10-15T06:41:06.386Z,13.85
2022-10-15T06:43:35.249Z,13.93
2022-10-15T06:46:04.090Z,14.06
2022-10-15T06:48:32.685Z,14.13
2022-10-15T06:51:00.801Z,14.29
2022-10-15T06:53:28.536Z,14.40
2022-10-15T06:55:59.897Z,14.63
2022-10-15T06:58:27.255Z,14.56
2022-10-15T07:01:00.127Z,13.90
2022-10-15T07:03:28.011Z,14.32
2022-10-15T07:05:55.647Z,14.36
2022-10-15T07:08:23.112Z,14.67
2022-10-15T07:10:50.709Z,14.59
2022-10-15T07:13:18.014Z,14.80
2022-10-15T07:15:46.282Z,14.62
2022-10-15T07:18:13.870Z,14.75
2022-10-15T07:20:41.356Z,14.66
2022-10-15T07:23:08.666Z,14.74
2022-10-15T07:25:36.290Z,14.66
2022-10-15T07:28:04.082Z,14.32
2022-10-15T07:30:31.665Z,14.84
2022-10-15T07:32:59.537Z,14.78
2022-10-15T07:35:27.059Z,14.49
2022-10-15T07:37:55.125Z,14.93
2022-10-15T07:40:22.902Z,15.02
2022-10-15T07:42:56.879Z,15.09
2022-10-15T07:45:26.254Z,15.34
2022-10-15T07:47:53.632Z,15.02
2022-10-15T07:50:21.457Z,15.46
2022-10-15T07:52:49.039Z,15.68
2022-10-15T07:55:16.340Z,15.73
2022-10-15T07:57:43.752Z,15.65
2022-10-15T08:00:12.051Z,15.82
2022-10-15T08:02:40.300Z,15.74
2022-10-15T08:05:08.213Z,15.89
2022-10-15T08:07:35.582Z,15.77
2022-10-15T08:10:09.702Z,15.96
2022-10-15T08:12:37.307Z,16.17
2022-10-15T08:15:05.700Z,15.23
2022-10-15T08:17:33.011Z,15.90
2022-10-15T08:20:00.586Z,15.96
2022-10-15T08:22:28.026Z,15.76
2022-10-15T08:24:56.443Z,16.00
2022-10-15T08:27:24.048Z,15.96
2022-10-15T08:29:57.580Z,16.33
2022-10-15T08:32:25.528Z,16.13
2022-10-15T08:34:53.172Z,15.87
2022-10-15T08:37:20.506Z,16.29
2022-10-15T08:39:48.451Z,16.35
2022-10-15T08:42:21.649Z,16.53
2022-10-15T08:44:58.419Z,16.39
2022-10-15T08:47:40.458Z,16.66
2022-10-15T08:50:16.993Z,16.78
2022-10-15T08:52:48.574Z,16.90
2022-10-15T08:55:18.077Z,16.91
2022-10-15T08:58:13.893Z,17.03
2022-10-15T09:00:45.496Z,17.07
2022-10-15T09:03:36.833Z,17.38
2022-10-15T09:06:13.993Z,17.89
2022-10-15T09:09:07.075Z,18.27
2022-10-15T09:11:56.450Z,18.36
2022-10-15T09:14:27.300Z,18.19
2022-10-15T09:16:55.000Z,18.62
2022-10-15T09:19:23.489Z,18.85
2022-10-15T09:21:51.756Z,19.19
2022-10-15T09:24:23.871Z,19.07
2022-10-15T09:27:07.316Z,19.32
2022-10-15T09:30:03.648Z,18.67
2022-10-15T09:32:46.888Z,18.70
2022-10-15T09:35:19.460Z,18.90
2022-10-15T09:38:24.339Z,18.99
2022-10-15T09:41:03.795Z,19.15
2022-10-15T09:43:36.684Z,18.87
2022-10-15T09:46:04.487Z,18.96
2022-10-15T09:48:44.176Z,18.99
2022-10-15T09:51:34.828Z,18.36
2022-10-15T09:54:12.879Z,17.93
2022-10-15T09:56:48.666Z,18.29
2022-10-15T09:59:17.718Z,18.30
2022-10-15T10:02:04.670Z,18.58
2022-10-15T10:04:33.608Z,18.35
2022-10-15T10:07:02.824Z,18.29
2022-10-15T10:09:33.672Z,18.55
2022-10-15T10:12:03.912Z,18.70
2022-10-15T10:14:42.873Z,18.79
2022-10-15T10:17:21.401Z,19.08
2022-10-15T10:20:07.608Z,19.43
2022-10-15T10:22:54.769Z,19.52
2022-10-15T10:25:30.983Z,19.12
2022-10-15T10:28:13.850Z,19.64
2022-10-15T10:31:03.779Z,19.58
2022-10-15T10:33:35.482Z,19.76
2022-10-15T10:36:02.920Z,20.30
2022-10-15T10:38:33.140Z,20.54
2022-10-15T10:41:08.521Z,20.73
2022-10-15T10:43:39.779Z,20.89
2022-10-15T10:46:14.546Z,20.82
2022-10-15T10:48:51.558Z,20.75
2022-10-15T10:51:21.760Z,21.08
2022-10-15T10:53:55.494Z,21.09
2022-10-15T10:56:35.969Z,21.29
2022-10-15T10:59:22.312Z,21.46
2022-10-15T11:01:50.332Z,21.65
2022-10-15T11:04:25.680Z,21.78
2022-10-15T11:07:00.740Z,21.96
2022-10-15T11:09:40.398Z,21.90
2022-10-15T11:12:25.667Z,22.04
2022-10-15T11:15:04.529Z,22.20
2022-10-15T11:18:06.136Z,22.32
2022-10-15T11:21:21.337Z,22.21
2022-10-15T11:24:09.346Z,22.14
2022-10-15T11:27:09.757Z,21.93
2022-10-15T11:29:42.197Z,21.56
2022-10-15T11:32:25.293Z,21.57
2022-10-15T11:35:40.959Z,21.27
2022-10-15T11:38:56.193Z,21.61
2022-10-15T11:41:29.557Z,21.32
2022-10-15T11:44:06.932Z,21.34
2022-10-15T11:46:44.074Z,21.32
2022-10-15T11:49:39.070Z,21.52
2022-10-15T11:52:35.626Z,21.81
2022-10-15T11:55:17.295Z,21.68
2022-10-15T11:57:44.679Z,22.05
2022-10-15T12:00:12.056Z,21.72
2022-10-15T12:02:39.536Z,21.47
2022-10-15T12:05:38.382Z,21.35
2022-10-15T12:08:05.924Z,21.74
2022-10-15T12:10:46.415Z,21.58
2022-10-15T12:13:33.988Z,21.79
2022-10-15T12:16:16.429Z,21.49
2022-10-15T12:18:54.328Z,21.92
2022-10-15T12:22:06.856Z,21.55
2022-10-15T12:24:51.682Z,22.16
2022-10-15T12:27:19.058Z,21.96
2022-10-15T12:29:50.920Z,22.10
2022-10-15T12:32:28.338Z,21.96
2022-10-15T12:35:02.590Z,21.99
2022-10-15T12:37:32.705Z,22.01
2022-10-15T12:40:05.895Z,21.69
2022-10-15T12:42:37.254Z,21.93
2022-10-15T12:45:06.668Z,21.74
2022-10-15T12:47:54.201Z,21.30
2022-10-15T12:50:28.516Z,21.60
2022-10-15T12:52:58.911Z,21.61
2022-10-15T12:55:38.744Z,21.37
2022-10-15T12:58:16.737Z,21.43
2022-10-15T13:00:44.236Z,21.55
2022-10-15T13:03:22.441Z,21.51
2022-10-15T13:05:53.110Z,21.21
2022-10-15T13:08:31.814Z,21.31
2022-10-15T13:10:59.657Z,21.40
2022-10-15T13:13:29.493Z,21.60
2022-10-15T13:16:09.914Z,21.51
2022-10-15T13:18:37.492Z,21.45
2022-10-15T13:21:05.994Z,21.45
2022-10-15T13:23:35.389Z,21.59
2022-10-15T13:26:23.725Z,21.52
2022-10-15T13:28:52.674Z,21.56
2022-10-15T13:31:30.348Z,21.37
2022-10-15T13:34:01.502Z,21.34
2022-10-15T13:36:33.259Z,21.26
2022-10-15T13:39:06.631Z,21.23
2022-10-15T13:41:38.176Z,21.49
2022-10-15T13:44:05.759Z,21.16
2022-10-15T13:46:36.531Z,21.29
2022-10-15T13:49:12.532Z,21.14
2022-10-15T13:51:41.953Z,21.02
2022-10-15T13:54:12.174Z,21.07
2022-10-15T13:56:46.381Z,21.11
2022-10-15T13:59:17.186Z,21.06
2022-10-15T14:01:48.888Z,20.98
2022-10-15T14:04:22.160Z,20.96
2022-10-15T14:07:03.790Z,20.96
2022-10-15T14:09:33.135Z,20.92
2022-10-15T14:12:03.122Z,20.62
2022-10-15T14:14:32.055Z,20.56
2022-10-15T14:17:01.348Z,20.70
2022-10-15T14:19:30.084Z,20.52
2022-10-15T14:21:57.898Z,20.32
2022-10-15T14:24:36.144Z,20.11
2022-10-15T14:27:17.654Z,19.98
2022-10-15T14:29:46.065Z,20.00
2022-10-15T14:32:43.034Z,20.24
2022-10-15T14:35:35.969Z,19.38
2022-10-15T14:38:16.375Z,19.91
2022-10-15T14:41:28.634Z,20.11
2022-10-15T14:44:20.401Z,20.18
2022-10-15T14:46:49.610Z,19.94
2022-10-15T14:49:21.984Z,19.52
2022-10-15T14:51:54.439Z,19.59
2022-10-15T14:54:24.559Z,19.24
2022-10-15T14:56:52.169Z,19.24
2022-10-15T14:59:20.006Z,19.54
2022-10-15T15:01:52.660Z,19.58
2022-10-15T15:04:38.138Z,19.74
2022-10-15T15:07:20.078Z,19.50
2022-10-15T15:09:48.254Z,19.49
2022-10-15T15:12:18.470Z,19.41
2022-10-15T15:14:45.817Z,19.67
2022-10-15T15:17:23.989Z,19.51
2022-10-15T15:19:52.155Z,19.24
2022-10-15T15:22:28.243Z,19.33
2022-10-15T15:24:56.702Z,19.03
2022-10-15T15:27:28.309Z,19.12
2022-10-15T15:29:55.718Z,19.10
2022-10-15T15:32:23.532Z,19.27
2022-10-15T15:34:52.326Z,19.24
2022-10-15T15:37:21.409Z,19.19
2022-10-15T15:39:49.106Z,19.19
2022-10-15T15:42:21.646Z,19.19
2022-10-15T15:44:49.188Z,19.07
2022-10-15T15:47:17.000Z,19.08
2022-10-15T15:49:44.369Z,19.03
2022-10-15T15:52:13.942Z,19.09
2022-10-15T15:54:41.617Z,18.94
2022-10-15T15:57:09.150Z,18.86
2022-10-15T15:59:36.514Z,18.83
2022-10-15T16:02:04.184Z,18.73
2022-10-15T16:04:31.830Z,18.70
2022-10-15T16:06:59.145Z,18.67
2022-10-15T16:09:26.684Z,18.35
2022-10-15T16:11:54.308Z,18.50
2022-10-15T16:14:21.676Z,18.35
2022-10-15T16:16:49.025Z,18.44
2022-10-15T16:19:16.653Z,18.29
2022-10-15T16:21:43.949Z,18.32
2022-10-15T16:24:11.240Z,18.20
2022-10-15T16:26:38.855Z,18.22
2022-10-15T16:29:06.178Z,18.24
2022-10-15T16:31:36.588Z,18.22
2022-10-15T16:34:04.665Z,18.29
2022-10-15T16:36:32.127Z,18.14
2022-10-15T16:38:59.482Z,18.08
2022-10-15T16:41:27.124Z,18.10
2022-10-15T16:43:54.462Z,18.00
2022-10-15T16:46:21.804Z,18.18
2022-10-15T16:48:53.850Z,17.92
2022-10-15T16:51:21.375Z,17.98
2022-10-15T16:53:50.260Z,17.98
2022-10-15T16:56:25.072Z,17.91
2022-10-15T16:58:52.776Z,17.88
2022-10-15T17:01:22.700Z,18.10
2022-10-15T17:03:50.072Z,18.16
2022-10-15T17:06:21.041Z,17.91
2022-10-15T17:08:52.616Z,17.79
2022-10-15T17:11:21.758Z,17.95
2022-10-15T17:13:50.452Z,17.70
2022-10-15T17:16:22.685Z,17.89
2022-10-15T17:21:25.225Z,17.62
2022-10-15T17:23:57.538Z,17.79
2022-10-15T17:26:27.037Z,17.79
2022-10-15T17:28:54.701Z,18.05
2022-10-15T17:31:23.442Z,17.93
2022-10-15T17:33:57.784Z,17.74
2022-10-15T17:36:25.541Z,17.74
2022-10-15T17:38:55.203Z,17.80
2022-10-15T17:41:23.233Z,17.80
2022-10-15T17:43:51.008Z,17.89
2022-10-15T17:46:20.136Z,17.83
2022-10-15T17:48:47.685Z,17.77
2022-10-15T17:51:16.995Z,17.86
2022-10-15T17:53:44.337Z,17.88
2022-10-15T17:56:21.472Z,17.69
2022-10-15T17:58:50.117Z,17.88
2022-10-15T18:01:28.070Z,17.71
2022-10-15T18:04:01.272Z,17.80
2022-10-15T18:06:28.631Z,17.70
2022-10-15T18:08:56.018Z,17.72
2022-10-15T18:11:26.517Z,17.79
2022-10-15T18:13:53.886Z,17.80
2022-10-15T18:16:21.486Z,17.75
2022-10-15T18:18:49.177Z,17.77
2022-10-15T18:21:17.309Z,17.75
2022-10-15T18:23:44.648Z,17.75
2022-10-15T18:26:18.705Z,17.81
2022-10-15T18:28:48.021Z,17.91
2022-10-15T18:31:15.729Z,17.96
2022-10-15T18:33:43.795Z,17.80
2022-10-15T18:36:13.748Z,17.72
2022-10-15T18:38:43.497Z,17.76
2022-10-15T18:41:17.030Z,17.75
2022-10-15T18:43:44.796Z,17.76
2022-10-15T18:46:12.145Z,17.55
2022-10-15T18:48:39.520Z,17.59
2022-10-15T18:51:10.005Z,17.60
2022-10-15T18:53:38.069Z,17.58
2022-10-15T18:56:06.280Z,17.61
2022-10-15T18:58:33.972Z,17.59
2022-10-15T19:01:27.391Z,17.65
2022-10-15T19:03:55.810Z,17.61
2022-10-15T19:06:24.960Z,17.69
2022-10-15T19:08:53.709Z,17.67
2022-10-15T19:11:21.332Z,17.63
2022-10-15T19:13:49.330Z,17.66
2022-10-15T19:16:16.690Z,17.76
2022-10-15T19:18:45.038Z,17.66
2022-10-15T19:21:12.343Z,17.64
2022-10-15T19:23:39.740Z,17.68
2022-10-15T19:26:10.876Z,17.67
2022-10-15T19:28:38.314Z,17.67
2022-10-15T19:31:06.903Z,17.67
2022-10-15T19:33:36.593Z,17.65
2022-10-15T19:36:04.163Z,17.54
2022-10-15T19:38:31.596Z,17.48
2022-10-15T19:41:01.962Z,17.50
2022-10-15T19:43:29.280Z,17.54
2022-10-15T19:45:56.637Z,17.57
2022-10-15T19:48:24.802Z,17.57
2022-10-15T19:50:52.124Z,17.64
2022-10-15T19:53:19.505Z,17.59
2022-10-15T19:55:55.529Z,17.76
2022-10-15T19:58:22.899Z,17.75
2022-10-15T20:00:51.221Z,17.70
2022-10-15T20:03:19.096Z,17.65
2022-10-15T20:05:46.479Z,17.64
2022-10-15T20:08:13.907Z,17.63
2022-10-15T20:10:45.004Z,17.72
2022-10-15T20:13:13.249Z,17.76
2022-10-15T20:15:42.238Z,17.73
2022-10-15T20:18:09.647Z,17.75
2022-10-15T20:20:37.830Z,17.72
2022-10-15T20:23:05.439Z,17.67
2022-10-15T20:25:32.755Z,17.65
2022-10-15T20:28:00.093Z,17.70
2022-10-15T20:30:27.670Z,17.71
2022-10-15T20:32:54.996Z,17.66
2022-10-15T20:35:22.402Z,17.54
2022-10-15T20:37:50.019Z,17.79
2022-10-15T20:40:17.345Z,17.62
2022-10-15T20:42:44.652Z,17.60
2022-10-15T20:45:16.193Z,17.62
2022-10-15T20:47:48.674Z,17.60
2022-10-15T20:50:18.567Z,17.78
2022-10-15T20:52:45.862Z,17.49
2022-10-15T20:55:13.286Z,17.59
2022-10-15T20:57:41.006Z,17.59
2022-10-15T21:00:09.078Z,17.61
2022-10-15T21:02:36.483Z,17.79
2022-10-15T21:05:04.177Z,17.73
2022-10-15T21:07:31.506Z,17.62
2022-10-15T21:09:58.898Z,17.68
2022-10-15T21:12:27.419Z,17.91
2022-10-15T21:14:54.957Z,17.91
2022-10-15T21:17:22.525Z,17.79
2022-10-15T21:19:52.716Z,17.90
2022-10-15T21:22:20.611Z,18.01
2022-10-15T21:24:47.915Z,17.62
2022-10-15T21:27:15.538Z,17.86
2022-10-15T21:29:44.960Z,17.89
2022-10-15T21:32:12.365Z,17.90
2022-10-15T21:37:12.434Z,17.98
2022-10-15T21:39:40.015Z,17.93
2022-10-15T21:42:07.343Z,18.06
2022-10-15T21:44:34.648Z,17.86
2022-10-15T21:47:02.252Z,17.84
2022-10-15T21:49:29.643Z,17.77
2022-10-15T21:51:56.968Z,17.86
2022-10-15T21:54:24.563Z,17.83
2022-10-15T21:56:51.885Z,17.84
2022-10-15T21:59:19.339Z,17.87
2022-10-15T22:01:46.989Z,18.04
2022-10-15T22:04:14.644Z,17.83
2022-10-15T22:06:42.196Z,17.88
2022-10-15T22:09:10.131Z,17.80
2022-10-15T22:11:39.431Z,17.86
2022-10-15T22:14:08.341Z,17.86
2022-10-15T22:16:36.473Z,18.05
2022-10-15T22:19:04.504Z,17.71
2022-10-15T22:21:33.368Z,17.73
2022-10-15T22:24:02.258Z,17.92
2022-10-15T22:26:31.980Z,17.49
2022-10-15T22:29:00.487Z,17.55
2022-10-15T22:31:27.957Z,17.78
2022-10-15T22:33:55.701Z,17.66
2022-10-15T22:36:24.175Z,17.63
2022-10-15T22:41:36.622Z,17.90
2022-10-15T22:44:04.027Z,17.73
2022-10-15T22:46:35.905Z,17.54
2022-10-15T22:49:03.516Z,17.51
2022-10-15T22:51:30.891Z,17.51
2022-10-15T22:53:58.583Z,17.65
2022-10-15T22:56:26.123Z,17.60
2022-10-15T22:58:54.558Z,17.59
2022-10-15T23:01:24.055Z,17.55
2022-10-15T23:03:52.890Z,17.49
2022-10-15T23:06:20.259Z,17.65
2022-10-15T23:08:48.148Z,17.48
2022-10-15T23:11:20.371Z,17.59
2022-10-15T23:13:48.467Z,17.53
2022-10-15T23:16:20.503Z,17.65
2022-10-15T23:18:51.362Z,17.68
2022-10-15T23:21:20.434Z,17.50
2022-10-15T23:23:48.094Z,17.54
2022-10-15T23:26:16.109Z,17.51
2022-10-15T23:28:44.160Z,17.46
2022-10-15T23:31:19.161Z,17.66
2022-10-15T23:33:46.556Z,17.50
2022-10-15T23:36:14.200Z,17.46
2022-10-15T23:38:41.600Z,17.67
2022-10-15T23:41:09.673Z,17.32
2022-10-15T23:43:37.350Z,17.27
2022-10-15T23:46:04.763Z,17.38
2022-10-15T23:48:32.088Z,17.38
2022-10-15T23:51:03.323Z,17.36
2022-10-15T23:53:32.644Z,17.31
2022-10-15T23:56:02.573Z,17.00
2022-10-15T23:58:32.049Z,17.40
